首页
METAR-TAF:

METAR-TAF

机场 :

格洛斯特, 英格兰

纬度: 51-54N, 经度: 002-10W, 海拔: 29米

当前天气观测

该预报发布于7小时和45分钟前的14:50 UTC
风速5节,风向西北,在西之间变化
温度 22°C
湿度 53%
气压 1035 hPa
能见度10公里或以上
多云层高于4500英尺

METAR: EGBJ 261450Z 32005KT 260V350 9999 BKN045 22/12 Q1035

时间: 23:35 (22:35 UTC)

预报

该预报发布于8小时和34分钟前的14:01 UTC
预报有效从26日的 15点(UTC)到 26日的 18点(UTC)
风速5节,风向北转西北
能见度10公里或以上
散云层高于3000英尺

TAF: EGBJ 261401Z 2615/2618 33005KT 9999 SCT030

超过4000个机场的气象观测和天气预报(METAR&TAF报告)。

可查询的气象台以黄色和红色小点在地图上表示。

将鼠标移到小点上方,可查看气象台名称。

然后点击查看天气观测和预报。

如需切换地图:点击带黑十字的绿色按钮放大地图;点击带横线的绿色按钮缩小地图;或者点击绿色箭头查看邻近地区的地图。


METAR-TAF: